createdAt,value
2018-06-15T00:01:46.263Z,14.69
2018-06-15T00:04:13.421Z,14.75
2018-06-15T00:06:40.563Z,14.74
2018-06-15T00:09:07.927Z,14.74
2018-06-15T00:11:35.047Z,14.76
2018-06-15T00:14:02.166Z,14.70
2018-06-15T00:16:29.690Z,14.64
2018-06-15T00:18:56.780Z,14.66
2018-06-15T00:21:23.981Z,14.70
2018-06-15T00:23:51.167Z,14.67
2018-06-15T00:26:18.404Z,14.66
2018-06-15T00:28:45.536Z,14.70
2018-06-15T00:31:12.700Z,14.77
2018-06-15T00:33:39.971Z,14.75
2018-06-15T00:36:07.166Z,14.78
2018-06-15T00:38:34.650Z,14.79
2018-06-15T00:41:01.786Z,14.83
2018-06-15T00:43:28.893Z,14.84
2018-06-15T00:45:56.146Z,14.81
2018-06-15T00:48:23.279Z,14.78
2018-06-15T00:50:50.395Z,14.78
2018-06-15T00:53:17.901Z,14.80
2018-06-15T00:55:45.049Z,14.81
2018-06-15T00:58:12.297Z,14.87
2018-06-15T01:00:39.492Z,15.04
2018-06-15T01:03:06.611Z,15.19
2018-06-15T01:05:33.770Z,15.26
2018-06-15T01:08:00.919Z,15.30
2018-06-15T01:10:28.145Z,15.36
2018-06-15T01:12:55.257Z,15.39
2018-06-15T01:15:22.392Z,15.42
2018-06-15T01:17:49.588Z,15.55
2018-06-15T01:20:16.719Z,15.62
2018-06-15T01:22:43.981Z,15.81
2018-06-15T01:25:11.135Z,15.79
2018-06-15T01:27:38.246Z,15.84
2018-06-15T01:30:05.607Z,15.87
2018-06-15T01:32:32.733Z,15.82
2018-06-15T01:34:59.907Z,15.91
2018-06-15T01:37:27.360Z,15.84
2018-06-15T01:39:54.491Z,15.90
2018-06-15T01:42:21.676Z,15.92
2018-06-15T01:44:48.808Z,16.06
2018-06-15T01:47:16.023Z,15.94
2018-06-15T01:49:43.202Z,15.95
2018-06-15T01:52:10.394Z,15.91
2018-06-15T01:54:37.572Z,15.98
2018-06-15T01:57:04.724Z,15.99
2018-06-15T01:59:31.971Z,15.91
2018-06-15T02:01:59.078Z,15.88
2018-06-15T02:04:26.185Z,15.87
2018-06-15T02:06:53.488Z,15.85
2018-06-15T02:09:20.637Z,15.85
2018-06-15T02:11:47.897Z,15.84
2018-06-15T02:14:15.096Z,15.80
2018-06-15T02:16:42.254Z,15.74
2018-06-15T02:19:09.424Z,15.69
2018-06-15T02:21:36.591Z,15.57
2018-06-15T02:24:03.905Z,15.54
2018-06-15T02:26:31.054Z,15.51
2018-06-15T02:28:58.248Z,15.52
2018-06-15T02:31:25.426Z,15.54
2018-06-15T02:33:52.549Z,15.46
2018-06-15T02:36:19.775Z,15.48
2018-06-15T02:38:46.964Z,15.44
2018-06-15T02:41:14.254Z,15.42
2018-06-15T02:43:41.470Z,15.52
2018-06-15T02:46:08.581Z,15.49
2018-06-15T02:48:35.761Z,15.53
2018-06-15T02:51:02.980Z,15.55
2018-06-15T02:53:30.092Z,15.56
2018-06-15T02:55:57.352Z,15.60
2018-06-15T02:58:24.508Z,15.63
2018-06-15T03:00:51.731Z,15.66
2018-06-15T03:03:18.887Z,15.72
2018-06-15T03:05:46.107Z,15.73
2018-06-15T03:08:13.391Z,15.75
2018-06-15T03:10:40.650Z,15.88
2018-06-15T03:13:07.954Z,16.01
2018-06-15T03:15:35.143Z,16.02
2018-06-15T03:18:02.277Z,15.92
2018-06-15T03:20:29.947Z,15.88
2018-06-15T03:22:57.056Z,15.99
2018-06-15T03:25:24.313Z,15.93
2018-06-15T03:27:51.501Z,15.90
2018-06-15T03:30:18.643Z,15.90
2018-06-15T03:32:45.893Z,15.94
2018-06-15T03:35:13.173Z,15.96
2018-06-15T03:37:40.411Z,16.04
2018-06-15T03:40:07.543Z,16.06
2018-06-15T03:42:34.704Z,16.16
2018-06-15T03:45:01.893Z,16.25
2018-06-15T03:47:29.051Z,16.25
2018-06-15T03:49:56.315Z,16.11
2018-06-15T03:52:23.428Z,16.17
2018-06-15T03:54:50.524Z,16.12
2018-06-15T03:57:17.724Z,16.12
2018-06-15T03:59:44.841Z,16.21
2018-06-15T04:02:12.089Z,16.22
2018-06-15T04:04:39.236Z,16.20
2018-06-15T04:07:06.376Z,16.20
2018-06-15T04:09:33.552Z,16.21
2018-06-15T04:12:00.780Z,16.34
2018-06-15T04:14:28.009Z,16.31
2018-06-15T04:16:55.310Z,16.31
2018-06-15T04:19:22.646Z,16.28
2018-06-15T04:21:50.006Z,16.39
2018-06-15T04:24:17.252Z,16.33
2018-06-15T04:26:44.792Z,16.35
2018-06-15T04:29:11.953Z,16.30
2018-06-15T04:31:39.101Z,16.31
2018-06-15T04:34:06.324Z,16.33
2018-06-15T04:36:33.440Z,16.37
2018-06-15T04:39:00.688Z,16.46
2018-06-15T04:41:27.835Z,16.44
2018-06-15T04:43:55.024Z,16.41
2018-06-15T04:46:22.215Z,16.46
2018-06-15T04:48:49.356Z,16.53
2018-06-15T04:51:16.600Z,16.55
2018-06-15T04:53:44.857Z,16.69
2018-06-15T04:56:12.071Z,16.69
2018-06-15T04:58:39.256Z,16.83
2018-06-15T05:01:06.356Z,16.96
2018-06-15T05:03:33.620Z,17.04
2018-06-15T05:06:00.740Z,17.12
2018-06-15T05:08:27.843Z,17.18
2018-06-15T05:10:55.079Z,17.34
2018-06-15T05:13:22.163Z,17.43
2018-06-15T05:15:49.449Z,17.60
2018-06-15T05:18:16.996Z,17.69
2018-06-15T05:20:44.150Z,17.73
2018-06-15T05:23:11.341Z,17.92
2018-06-15T05:25:38.486Z,18.03
2018-06-15T05:28:05.722Z,18.07
2018-06-15T05:30:32.823Z,18.14
2018-06-15T05:33:00.050Z,18.32
2018-06-15T05:35:27.184Z,18.33
2018-06-15T05:37:54.338Z,18.22
2018-06-15T05:40:21.588Z,18.27
2018-06-15T05:42:48.726Z,18.36
2018-06-15T05:45:15.875Z,18.25
2018-06-15T05:47:43.191Z,18.29
2018-06-15T05:50:10.314Z,18.43
2018-06-15T05:52:37.487Z,18.34
2018-06-15T05:55:04.689Z,18.46
2018-06-15T05:57:31.791Z,18.54
2018-06-15T05:59:58.954Z,18.51
2018-06-15T06:02:26.149Z,18.55
2018-06-15T06:04:53.417Z,18.67
2018-06-15T06:07:20.545Z,18.70
2018-06-15T06:09:47.744Z,18.77
2018-06-15T06:12:14.954Z,18.74
2018-06-15T06:14:42.137Z,18.80
2018-06-15T06:17:09.374Z,18.88
2018-06-15T06:19:36.470Z,18.99
2018-06-15T06:22:03.573Z,18.99
2018-06-15T06:24:30.867Z,19.09
2018-06-15T06:26:57.987Z,19.08
2018-06-15T06:29:25.192Z,19.25
2018-06-15T06:31:52.361Z,19.25
2018-06-15T06:34:19.461Z,19.39
2018-06-15T06:36:46.679Z,19.49
2018-06-15T06:39:13.871Z,19.61
2018-06-15T06:41:41.096Z,19.68
2018-06-15T06:44:09.154Z,19.54
2018-06-15T06:46:36.328Z,19.68
2018-06-15T06:49:03.489Z,19.67
2018-06-15T06:51:30.601Z,19.80
2018-06-15T06:53:58.628Z,19.84
2018-06-15T06:56:26.179Z,19.89
2018-06-15T06:58:53.296Z,19.79
2018-06-15T07:01:20.506Z,19.83
2018-06-15T07:03:47.592Z,20.01
2018-06-15T07:06:14.868Z,20.03
2018-06-15T07:08:42.693Z,20.03
2018-06-15T07:11:09.797Z,20.05
2018-06-15T07:13:36.974Z,20.22
2018-06-15T07:16:04.188Z,20.29
2018-06-15T07:18:31.407Z,20.23
2018-06-15T07:20:58.506Z,20.15
2018-06-15T07:23:25.676Z,20.22
2018-06-15T07:25:52.856Z,20.37
2018-06-15T07:28:19.958Z,20.46
2018-06-15T07:30:47.176Z,20.40
2018-06-15T07:33:14.317Z,20.62
2018-06-15T07:35:41.480Z,20.53
2018-06-15T07:38:09.562Z,20.65
2018-06-15T07:40:36.671Z,20.71
2018-06-15T07:43:03.868Z,20.60
2018-06-15T07:45:31.036Z,20.72
2018-06-15T07:47:58.144Z,20.79
2018-06-15T07:50:25.330Z,20.85
2018-06-15T07:52:52.509Z,21.13
2018-06-15T07:55:20.572Z,21.25
2018-06-15T07:57:47.841Z,21.34
2018-06-15T08:00:15.025Z,21.63
2018-06-15T08:02:44.557Z,21.67
2018-06-15T08:05:11.684Z,21.69
2018-06-15T08:07:39.047Z,21.74
2018-06-15T08:10:06.201Z,21.91
2018-06-15T08:12:33.519Z,21.66
2018-06-15T08:15:00.737Z,21.86
2018-06-15T08:17:27.865Z,21.83
2018-06-15T08:19:55.087Z,21.75
2018-06-15T08:22:22.269Z,21.88
2018-06-15T08:24:49.420Z,21.77
2018-06-15T08:27:16.626Z,22.16
2018-06-15T08:29:43.790Z,22.44
2018-06-15T08:32:10.996Z,22.05
2018-06-15T08:34:38.111Z,22.00
2018-06-15T08:37:05.252Z,22.25
2018-06-15T08:39:32.543Z,22.32
2018-06-15T08:41:59.671Z,22.26
2018-06-15T08:44:27.431Z,22.29
2018-06-15T08:46:54.547Z,22.48
2018-06-15T08:49:21.688Z,22.62
2018-06-15T08:51:48.936Z,22.96
2018-06-15T08:54:16.080Z,22.65
2018-06-15T08:56:43.298Z,22.65
2018-06-15T08:59:10.481Z,22.32
2018-06-15T09:01:37.620Z,22.34
2018-06-15T09:04:04.872Z,22.34
2018-06-15T09:06:32.064Z,22.30
2018-06-15T09:08:59.336Z,22.24
2018-06-15T09:11:26.522Z,22.40
2018-06-15T09:13:53.784Z,22.59
2018-06-15T09:16:21.013Z,22.86
2018-06-15T09:18:48.138Z,23.32
2018-06-15T09:21:15.387Z,23.53
2018-06-15T09:23:42.577Z,23.91
2018-06-15T09:26:09.687Z,23.75
2018-06-15T09:28:37.012Z,24.04
2018-06-15T09:31:04.121Z,24.46
2018-06-15T09:33:31.328Z,24.48
2018-06-15T09:35:58.512Z,24.38
2018-06-15T09:38:25.640Z,24.34
2018-06-15T09:40:52.857Z,23.94
2018-06-15T09:43:20.071Z,24.37
2018-06-15T09:45:47.406Z,24.50
2018-06-15T09:48:14.623Z,24.55
2018-06-15T09:50:42.002Z,25.18
2018-06-15T09:53:09.184Z,25.25
2018-06-15T09:55:36.299Z,24.61
2018-06-15T09:58:03.681Z,24.56
2018-06-15T10:00:36.397Z,23.96
2018-06-15T10:03:03.560Z,23.21
2018-06-15T10:05:30.704Z,22.74
2018-06-15T10:07:57.815Z,22.34
2018-06-15T10:10:25.133Z,22.14
2018-06-15T10:12:52.953Z,21.84
2018-06-15T10:15:20.131Z,21.51
2018-06-15T10:17:47.482Z,21.25
2018-06-15T10:20:14.638Z,21.10
2018-06-15T10:22:42.454Z,21.15
2018-06-15T10:25:09.628Z,21.34
2018-06-15T10:27:36.809Z,21.54
2018-06-15T10:30:03.971Z,21.71
2018-06-15T10:32:31.135Z,22.05
2018-06-15T10:34:58.551Z,22.18
2018-06-15T10:37:25.735Z,22.46
2018-06-15T10:39:52.907Z,23.07
2018-06-15T10:42:20.025Z,24.51
2018-06-15T10:44:47.145Z,25.48
2018-06-15T10:47:14.306Z,26.35
2018-06-15T10:49:41.629Z,26.09
2018-06-15T10:52:08.852Z,25.69
2018-06-15T10:54:36.061Z,25.86
2018-06-15T10:57:03.281Z,25.58
2018-06-15T10:59:30.568Z,25.47
2018-06-15T11:01:57.812Z,25.25
2018-06-15T11:04:24.964Z,24.52
2018-06-15T11:06:52.111Z,24.80
2018-06-15T11:09:19.307Z,24.33
2018-06-15T11:11:46.464Z,24.00
2018-06-15T11:14:13.626Z,23.62
2018-06-15T11:16:40.825Z,23.34
2018-06-15T11:19:07.965Z,22.86
2018-06-15T11:21:35.132Z,22.54
2018-06-15T11:24:02.372Z,22.42
2018-06-15T11:26:29.495Z,22.20
2018-06-15T11:28:57.064Z,22.11
2018-06-15T11:31:24.255Z,21.96
2018-06-15T11:33:51.628Z,22.11
2018-06-15T11:36:18.745Z,22.37
2018-06-15T11:38:46.225Z,22.49
2018-06-15T11:41:13.494Z,22.75
2018-06-15T11:43:40.639Z,22.91
2018-06-15T11:46:07.789Z,23.19
2018-06-15T11:48:35.087Z,23.51
2018-06-15T11:51:02.219Z,23.69
2018-06-15T11:53:30.399Z,23.74
2018-06-15T11:55:57.575Z,23.67
2018-06-15T11:58:24.752Z,23.56
2018-06-15T12:00:52.045Z,23.65
2018-06-15T12:03:19.193Z,23.68
2018-06-15T12:05:46.412Z,23.62
2018-06-15T12:08:13.749Z,23.79
2018-06-15T12:10:40.895Z,24.08
2018-06-15T12:13:08.144Z,24.22
2018-06-15T12:15:35.328Z,24.55
2018-06-15T12:18:03.397Z,24.43
2018-06-15T12:20:30.538Z,24.34
2018-06-15T12:22:57.731Z,23.80
2018-06-15T12:25:24.928Z,23.92
2018-06-15T12:27:52.060Z,23.92
2018-06-15T12:30:19.735Z,23.91
2018-06-15T12:32:46.876Z,23.85
2018-06-15T12:35:14.016Z,23.89
2018-06-15T12:37:41.387Z,23.80
2018-06-15T12:40:08.540Z,23.67
2018-06-15T12:42:35.736Z,23.74
2018-06-15T12:45:02.984Z,23.42
2018-06-15T12:47:30.095Z,23.37
2018-06-15T12:49:57.318Z,23.15
2018-06-15T12:52:24.495Z,22.87
2018-06-15T12:54:51.704Z,23.08
2018-06-15T12:57:18.807Z,22.96
2018-06-15T12:59:46.019Z,23.13
2018-06-15T13:02:13.251Z,23.39
2018-06-15T13:04:40.351Z,23.54
2018-06-15T13:07:07.612Z,23.50
2018-06-15T13:09:34.740Z,23.61
2018-06-15T13:12:01.910Z,23.70
2018-06-15T13:14:29.159Z,24.20
2018-06-15T13:16:56.283Z,24.25
2018-06-15T13:19:23.600Z,24.52
2018-06-15T13:21:50.771Z,24.67
2018-06-15T13:24:17.877Z,24.82
2018-06-15T13:26:45.035Z,24.92
2018-06-15T13:29:12.204Z,24.84
2018-06-15T13:31:39.414Z,24.41
2018-06-15T13:34:06.552Z,24.89
2018-06-15T13:36:33.723Z,24.94
2018-06-15T13:39:00.936Z,24.97
2018-06-15T13:41:28.075Z,24.46
2018-06-15T13:43:55.339Z,25.29
2018-06-15T13:46:22.474Z,25.54
2018-06-15T13:48:49.631Z,25.59
2018-06-15T13:51:16.871Z,25.73
2018-06-15T13:53:43.994Z,25.88
2018-06-15T13:56:11.545Z,25.28
2018-06-15T13:58:38.723Z,25.39
2018-06-15T14:01:05.856Z,25.56
2018-06-15T14:03:33.027Z,25.43
2018-06-15T14:06:00.215Z,25.46
2018-06-15T14:08:27.428Z,25.49
2018-06-15T14:10:54.604Z,25.30
2018-06-15T14:13:21.989Z,25.31
2018-06-15T14:15:49.244Z,25.22
2018-06-15T14:18:16.880Z,25.07
2018-06-15T14:20:44.144Z,25.18
2018-06-15T14:23:11.272Z,25.20
2018-06-15T14:25:38.395Z,24.87
2018-06-15T14:28:05.678Z,25.12
2018-06-15T14:30:32.865Z,25.33
2018-06-15T14:33:00.097Z,25.02
2018-06-15T14:35:27.377Z,24.96
2018-06-15T14:37:54.499Z,24.97
2018-06-15T14:40:21.739Z,24.38
2018-06-15T14:42:49.026Z,24.42
2018-06-15T14:45:16.223Z,23.89
2018-06-15T14:47:43.392Z,24.09
2018-06-15T14:50:10.599Z,23.98
2018-06-15T14:52:37.765Z,23.93
2018-06-15T14:55:04.907Z,23.76
2018-06-15T14:57:32.243Z,23.21
2018-06-15T14:59:59.381Z,22.93
2018-06-15T15:02:26.544Z,22.65
2018-06-15T15:04:53.930Z,22.41
2018-06-15T15:07:21.083Z,22.60
2018-06-15T15:09:48.552Z,22.72
2018-06-15T15:12:15.694Z,22.84
2018-06-15T15:14:42.802Z,22.78
2018-06-15T15:17:10.091Z,22.75
2018-06-15T15:19:37.325Z,22.46
2018-06-15T15:22:04.524Z,22.31
2018-06-15T15:24:31.634Z,22.53
2018-06-15T15:26:58.802Z,22.50
2018-06-15T15:29:26.012Z,22.28
2018-06-15T15:31:53.139Z,22.16
2018-06-15T15:34:20.354Z,22.35
2018-06-15T15:36:47.497Z,22.25
2018-06-15T15:39:14.698Z,22.20
2018-06-15T15:41:41.872Z,21.95
2018-06-15T15:44:09.155Z,21.94
2018-06-15T15:46:36.352Z,21.78
2018-06-15T15:49:03.669Z,21.90
2018-06-15T15:51:30.778Z,21.93
2018-06-15T15:53:58.023Z,21.79
2018-06-15T15:56:25.223Z,21.79
2018-06-15T15:58:52.402Z,21.84
2018-06-15T16:01:19.555Z,21.66
2018-06-15T16:03:46.703Z,21.69
2018-06-15T16:06:13.827Z,21.74
2018-06-15T16:08:40.944Z,21.71
2018-06-15T16:11:08.491Z,21.54
2018-06-15T16:13:35.606Z,21.48
2018-06-15T16:16:02.707Z,21.47
2018-06-15T16:18:29.993Z,21.47
2018-06-15T16:20:57.557Z,21.56
2018-06-15T16:23:24.970Z,21.47
2018-06-15T16:25:52.151Z,21.42
2018-06-15T16:28:19.365Z,21.45
2018-06-15T16:30:46.569Z,21.52
2018-06-15T16:33:14.090Z,21.46
2018-06-15T16:35:41.208Z,21.59
2018-06-15T16:38:08.315Z,21.64
2018-06-15T16:40:35.488Z,21.61
2018-06-15T16:43:02.596Z,21.45
2018-06-15T16:45:29.855Z,21.54
2018-06-15T16:47:57.353Z,21.50
2018-06-15T16:50:24.754Z,21.33
2018-06-15T16:52:51.906Z,21.41
2018-06-15T16:55:20.079Z,21.20
2018-06-15T16:57:47.299Z,21.29
2018-06-15T17:00:14.543Z,21.17
2018-06-15T17:02:41.688Z,21.18
2018-06-15T17:05:08.832Z,21.21
2018-06-15T17:07:35.937Z,21.19
2018-06-15T17:10:03.499Z,21.11
2018-06-15T17:12:30.681Z,21.10
2018-06-15T17:14:57.871Z,21.20
2018-06-15T17:17:25.040Z,21.22
2018-06-15T17:19:52.190Z,21.23
2018-06-15T17:22:21.646Z,21.24
2018-06-15T17:24:48.859Z,21.15
2018-06-15T17:27:16.031Z,21.13
2018-06-15T17:29:43.172Z,21.14
2018-06-15T17:32:10.919Z,21.16
2018-06-15T17:34:38.076Z,21.10
2018-06-15T17:37:05.276Z,21.13
2018-06-15T17:39:32.454Z,21.13
2018-06-15T17:41:59.645Z,21.10
2018-06-15T17:44:26.793Z,21.16
2018-06-15T17:46:54.047Z,21.16
2018-06-15T17:49:21.144Z,21.12
2018-06-15T17:51:48.280Z,20.97
2018-06-15T17:54:15.472Z,21.00
2018-06-15T17:56:42.587Z,21.10
2018-06-15T17:59:09.708Z,21.02
2018-06-15T18:01:36.872Z,21.08
2018-06-15T18:04:05.225Z,21.07
2018-06-15T18:06:32.381Z,21.02
2018-06-15T18:08:59.605Z,20.97
2018-06-15T18:11:26.846Z,20.92
2018-06-15T18:13:53.979Z,20.89
2018-06-15T18:16:21.144Z,20.86
2018-06-15T18:18:48.328Z,20.82
2018-06-15T18:21:15.453Z,20.82
2018-06-15T18:23:42.650Z,20.73
2018-06-15T18:26:10.794Z,20.67
2018-06-15T18:28:37.949Z,20.62
2018-06-15T18:31:05.598Z,20.52
2018-06-15T18:33:34.092Z,20.46
2018-06-15T18:36:01.459Z,20.41
2018-06-15T18:38:28.992Z,20.34
2018-06-15T18:40:56.237Z,20.29
2018-06-15T18:43:23.607Z,20.23
2018-06-15T18:45:51.309Z,20.17
2018-06-15T18:48:19.279Z,20.11
2018-06-15T18:50:46.451Z,20.06
2018-06-15T18:53:13.614Z,20.02
2018-06-15T18:55:40.852Z,19.98
2018-06-15T18:58:08.540Z,19.96
2018-06-15T19:00:36.393Z,19.90
2018-06-15T19:03:03.584Z,19.83
2018-06-15T19:05:30.832Z,19.78
2018-06-15T19:07:58.059Z,19.72
2018-06-15T19:10:25.183Z,19.67
2018-06-15T19:12:52.316Z,19.65
2018-06-15T19:15:19.646Z,19.61
2018-06-15T19:17:49.259Z,19.58
2018-06-15T19:20:17.126Z,19.51
2018-06-15T19:22:44.316Z,19.47
2018-06-15T19:25:11.453Z,19.43
2018-06-15T19:27:38.569Z,19.39
2018-06-15T19:30:09.445Z,19.35
2018-06-15T19:32:36.562Z,19.31
2018-06-15T19:35:04.219Z,19.25
2018-06-15T19:37:31.421Z,19.22
2018-06-15T19:39:59.655Z,19.15
2018-06-15T19:42:26.949Z,19.16
2018-06-15T19:44:54.122Z,19.12
2018-06-15T19:47:21.828Z,19.09
2018-06-15T19:49:48.997Z,19.05
2018-06-15T19:52:16.361Z,19.03
2018-06-15T19:54:43.477Z,18.99
2018-06-15T19:57:10.843Z,18.99
2018-06-15T19:59:39.300Z,18.94
2018-06-15T20:02:07.239Z,18.91
2018-06-15T20:04:34.387Z,18.86
2018-06-15T20:07:01.952Z,18.82
2018-06-15T20:09:29.447Z,18.77
2018-06-15T20:11:56.574Z,18.75
2018-06-15T20:14:24.307Z,18.72
2018-06-15T20:16:51.960Z,18.69
2018-06-15T20:19:19.239Z,18.68
2018-06-15T20:21:46.525Z,18.67
2018-06-15T20:24:13.703Z,18.63
2018-06-15T20:26:41.069Z,18.61
2018-06-15T20:29:08.298Z,18.58
2018-06-15T20:31:35.464Z,18.55
2018-06-15T20:34:02.671Z,18.56
2018-06-15T20:36:29.997Z,18.56
2018-06-15T20:38:58.312Z,18.53
2018-06-15T20:41:25.431Z,18.51
2018-06-15T20:43:52.606Z,18.47
2018-06-15T20:46:19.716Z,18.48
2018-06-15T20:48:46.820Z,18.46
2018-06-15T20:51:14.163Z,18.44
2018-06-15T20:53:41.280Z,18.42
2018-06-15T20:56:08.407Z,18.40
2018-06-15T20:58:37.567Z,18.36
2018-06-15T21:01:04.783Z,18.33
2018-06-15T21:03:31.947Z,18.29
2018-06-15T21:05:59.214Z,18.26
2018-06-15T21:08:26.328Z,18.22
2018-06-15T21:10:53.432Z,18.23
2018-06-15T21:13:20.919Z,18.23
2018-06-15T21:15:48.096Z,18.24
2018-06-15T21:18:15.391Z,18.23
2018-06-15T21:20:42.664Z,18.21
2018-06-15T21:23:09.764Z,18.21
2018-06-15T21:25:36.894Z,18.18
2018-06-15T21:28:04.088Z,18.16
2018-06-15T21:30:31.258Z,18.15
2018-06-15T21:32:58.383Z,18.16
2018-06-15T21:35:25.548Z,18.14
2018-06-15T21:37:52.678Z,18.13
2018-06-15T21:40:19.887Z,18.09
2018-06-15T21:42:47.019Z,18.11
2018-06-15T21:45:14.152Z,18.08
2018-06-15T21:47:41.298Z,18.07
2018-06-15T21:50:09.531Z,18.09
2018-06-15T21:52:36.766Z,18.09
2018-06-15T21:55:03.959Z,18.10
2018-06-15T21:57:31.176Z,18.01
2018-06-15T21:59:58.304Z,18.00
2018-06-15T22:02:25.459Z,18.09
2018-06-15T22:04:52.719Z,18.15
2018-06-15T22:07:19.832Z,18.14
2018-06-15T22:09:46.959Z,18.17
2018-06-15T22:12:14.184Z,18.16
2018-06-15T22:14:41.310Z,18.14
2018-06-15T22:17:08.578Z,18.14
2018-06-15T22:19:36.043Z,18.17
2018-06-15T22:22:03.248Z,18.13
2018-06-15T22:24:30.373Z,18.12
2018-06-15T22:26:57.571Z,18.08
2018-06-15T22:29:24.776Z,18.20
2018-06-15T22:31:51.907Z,18.12
2018-06-15T22:34:19.083Z,18.08
2018-06-15T22:36:46.185Z,18.08
2018-06-15T22:39:14.511Z,18.09
2018-06-15T22:41:42.201Z,18.12
2018-06-15T22:44:10.020Z,18.07
2018-06-15T22:46:37.293Z,18.05
2018-06-15T22:49:04.488Z,18.08
2018-06-15T22:51:31.589Z,18.09
2018-06-15T22:53:58.717Z,18.14
2018-06-15T22:56:25.887Z,18.14
2018-06-15T22:58:53.000Z,18.12
2018-06-15T23:01:20.113Z,18.06
2018-06-15T23:03:47.307Z,18.07
2018-06-15T23:06:14.447Z,18.05
2018-06-15T23:08:41.694Z,18.06
2018-06-15T23:11:08.841Z,18.06
2018-06-15T23:13:35.981Z,18.10
2018-06-15T23:16:03.090Z,18.02
2018-06-15T23:18:30.288Z,18.02
2018-06-15T23:20:57.403Z,18.10
2018-06-15T23:23:24.555Z,18.10
2018-06-15T23:25:51.700Z,18.10
2018-06-15T23:28:18.924Z,18.08
2018-06-15T23:30:46.036Z,18.06
2018-06-15T23:33:13.174Z,18.01
2018-06-15T23:35:40.332Z,18.00
2018-06-15T23:38:07.457Z,18.07
2018-06-15T23:40:34.626Z,18.02
2018-06-15T23:43:01.761Z,18.00
2018-06-15T23:45:28.902Z,18.03
2018-06-15T23:47:56.106Z,18.01
2018-06-15T23:50:23.216Z,18.04
2018-06-15T23:52:50.764Z,18.01
2018-06-15T23:55:17.912Z,17.98
2018-06-15T23:57:45.003Z,17.93
